createdAt,value
2022-08-19T00:00:32.856Z,31.71
2022-08-19T00:01:32.873Z,31.71
2022-08-19T00:02:32.869Z,31.74
2022-08-19T00:03:33.581Z,31.70
2022-08-19T00:04:32.941Z,31.64
2022-08-19T00:05:32.790Z,31.64
2022-08-19T00:06:32.798Z,31.58
2022-08-19T00:07:32.780Z,31.54
2022-08-19T00:08:32.787Z,31.52
2022-08-19T00:09:32.740Z,31.54
2022-08-19T00:10:32.744Z,31.51
2022-08-19T00:11:32.727Z,31.62
2022-08-19T00:12:32.743Z,31.51
2022-08-19T00:13:32.746Z,31.59
2022-08-19T00:14:33.594Z,31.59
2022-08-19T00:15:32.675Z,31.58
2022-08-19T00:16:32.667Z,31.51
2022-08-19T00:17:32.658Z,31.56
2022-08-19T00:18:32.668Z,31.51
2022-08-19T00:19:32.660Z,31.40
2022-08-19T00:20:32.662Z,31.54
2022-08-19T00:21:32.620Z,31.39
2022-08-19T00:22:32.601Z,31.36
2022-08-19T00:23:32.602Z,31.44
2022-08-19T00:24:32.605Z,31.43
2022-08-19T00:25:32.562Z,31.42
2022-08-19T00:26:32.575Z,31.42
2022-08-19T00:27:32.536Z,31.43
2022-08-19T00:28:32.538Z,31.43
2022-08-19T00:29:32.524Z,31.39
2022-08-19T00:30:32.500Z,31.36
2022-08-19T00:31:33.100Z,31.28
2022-08-19T00:32:32.486Z,31.28
2022-08-19T00:33:32.469Z,31.34
2022-08-19T00:34:32.460Z,31.36
2022-08-19T00:35:32.495Z,31.34
2022-08-19T00:36:33.108Z,31.34
2022-08-19T00:37:32.420Z,31.21
2022-08-19T00:38:37.133Z,31.25
2022-08-19T00:39:32.435Z,31.24
2022-08-19T00:40:32.445Z,31.33
2022-08-19T00:41:32.426Z,31.34
2022-08-19T00:42:33.137Z,31.31
2022-08-19T00:43:32.360Z,31.31
2022-08-19T00:44:32.362Z,31.33
2022-08-19T00:45:32.342Z,31.31
2022-08-19T00:46:32.356Z,31.34
2022-08-19T00:47:32.309Z,31.36
2022-08-19T00:48:32.294Z,31.31
2022-08-19T00:49:32.297Z,31.25
2022-08-19T00:50:32.287Z,31.25
2022-08-19T00:51:32.284Z,31.24
2022-08-19T00:52:32.273Z,31.33
2022-08-19T00:53:33.122Z,31.27
2022-08-19T00:54:32.224Z,31.36
2022-08-19T00:55:32.210Z,31.28
2022-08-19T00:56:32.205Z,31.25
2022-08-19T00:57:32.212Z,31.27
2022-08-19T00:58:32.239Z,31.24
2022-08-19T00:59:53.501Z,31.31
2022-08-19T01:00:32.149Z,31.24
2022-08-19T01:01:32.165Z,31.24
2022-08-19T01:02:32.155Z,31.22
2022-08-19T01:03:40.278Z,31.27
2022-08-19T01:04:32.113Z,31.20
2022-08-19T01:05:32.101Z,31.18
2022-08-19T01:06:32.082Z,31.20
2022-08-19T01:07:37.962Z,31.24
2022-08-19T01:08:32.095Z,31.22
2022-08-19T01:09:32.635Z,31.27
2022-08-19T01:10:36.209Z,31.21
2022-08-19T01:11:32.034Z,31.25
2022-08-19T01:12:32.029Z,31.22
2022-08-19T01:13:49.326Z,31.28
2022-08-19T01:14:32.015Z,31.20
2022-08-19T01:15:31.987Z,31.24
2022-08-19T01:16:31.965Z,31.22
2022-08-19T01:17:31.952Z,31.21
2022-08-19T01:18:31.968Z,31.21
2022-08-19T01:19:31.981Z,31.17
2022-08-19T01:20:31.973Z,31.24
2022-08-19T01:21:31.898Z,31.24
2022-08-19T01:22:33.828Z,31.20
2022-08-19T01:23:31.900Z,31.20
2022-08-19T01:24:31.895Z,31.22
2022-08-19T01:25:31.849Z,31.22
2022-08-19T01:26:31.867Z,31.24
2022-08-19T01:27:37.451Z,31.22
2022-08-19T01:28:33.993Z,31.18
2022-08-19T01:29:31.823Z,31.20
2022-08-19T01:30:31.835Z,31.21
2022-08-19T01:31:33.259Z,31.17
2022-08-19T01:32:33.474Z,31.20
2022-08-19T01:33:31.760Z,31.17
2022-08-19T01:34:32.660Z,31.14
2022-08-19T01:35:31.757Z,31.17
2022-08-19T01:36:31.720Z,31.17
2022-08-19T01:37:31.853Z,31.18
2022-08-19T01:38:31.709Z,31.14
2022-08-19T01:39:31.718Z,31.17
2022-08-19T01:40:31.714Z,31.14
2022-08-19T01:41:31.719Z,31.18
2022-08-19T01:42:32.637Z,31.14
2022-08-19T01:43:31.641Z,31.14
2022-08-19T01:44:31.627Z,31.18
2022-08-19T01:45:31.651Z,31.17
2022-08-19T01:46:31.635Z,31.15
2022-08-19T01:47:31.684Z,31.14
2022-08-19T01:48:31.581Z,31.17
2022-08-19T01:49:31.577Z,31.09
2022-08-19T01:50:31.575Z,31.14
2022-08-19T01:51:31.578Z,31.14
2022-08-19T01:52:31.527Z,31.20
2022-08-19T01:53:33.733Z,31.17
2022-08-19T01:54:31.515Z,31.17
2022-08-19T01:55:31.496Z,31.20
2022-08-19T01:56:31.507Z,31.18
2022-08-19T01:57:31.500Z,31.20
2022-08-19T01:58:31.521Z,31.21
2022-08-19T01:59:31.451Z,31.20
2022-08-19T02:00:31.448Z,31.21
2022-08-19T02:01:31.509Z,31.20
2022-08-19T02:02:31.448Z,31.20
2022-08-19T02:03:31.420Z,31.15
2022-08-19T02:04:31.475Z,31.14
2022-08-19T02:05:31.380Z,31.17
2022-08-19T02:06:31.368Z,31.27
2022-08-19T02:07:31.375Z,31.20
2022-08-19T02:08:31.359Z,31.14
2022-08-19T02:09:32.207Z,31.21
2022-08-19T02:10:31.325Z,31.20
2022-08-19T02:11:31.307Z,31.20
2022-08-19T02:12:31.308Z,31.10
2022-08-19T02:13:31.321Z,31.14
2022-08-19T02:14:31.295Z,31.17
2022-08-19T02:15:32.162Z,31.22
2022-08-19T02:16:31.260Z,31.12
2022-08-19T02:17:31.248Z,31.20
2022-08-19T02:18:31.252Z,31.21
2022-08-19T02:19:31.261Z,31.22
2022-08-19T02:20:31.257Z,31.24
2022-08-19T02:21:31.183Z,31.21
2022-08-19T02:22:31.188Z,31.14
2022-08-19T02:23:31.176Z,31.20
2022-08-19T02:24:31.213Z,31.17
2022-08-19T02:25:31.190Z,31.12
2022-08-19T02:26:31.210Z,31.14
2022-08-19T02:27:31.132Z,31.03
2022-08-19T02:28:31.109Z,31.20
2022-08-19T02:29:31.099Z,31.12
2022-08-19T02:30:31.121Z,31.10
2022-08-19T02:31:31.144Z,31.17
2022-08-19T02:32:31.058Z,31.10
2022-08-19T02:33:31.040Z,31.07
2022-08-19T02:34:31.053Z,31.02
2022-08-19T02:35:31.032Z,31.05
2022-08-19T02:36:31.009Z,31.03
2022-08-19T02:37:31.010Z,31.02
2022-08-19T02:38:30.996Z,30.91
2022-08-19T02:39:31.035Z,30.91
2022-08-19T02:40:30.998Z,30.91
2022-08-19T02:41:30.978Z,30.96
2022-08-19T02:42:30.972Z,30.88
2022-08-19T02:43:32.277Z,30.85
2022-08-19T02:44:32.109Z,30.88
2022-08-19T02:45:30.901Z,30.88
2022-08-19T02:46:30.934Z,30.91
2022-08-19T02:47:30.903Z,30.90
2022-08-19T02:48:30.861Z,30.84
2022-08-19T02:49:34.880Z,30.91
2022-08-19T02:50:30.850Z,30.81
2022-08-19T02:51:30.859Z,30.88
2022-08-19T02:52:30.876Z,30.92
2022-08-19T02:53:31.693Z,30.96
2022-08-19T02:54:30.794Z,30.91
2022-08-19T02:55:30.782Z,30.92
2022-08-19T02:56:30.790Z,30.94
2022-08-19T02:57:30.769Z,30.92
2022-08-19T02:58:30.808Z,30.99
2022-08-19T02:59:30.732Z,31.03
2022-08-19T03:00:31.742Z,31.05
2022-08-19T03:01:30.782Z,31.02
2022-08-19T03:02:30.714Z,31.02
2022-08-19T03:03:30.713Z,31.06
2022-08-19T03:04:33.223Z,31.03
2022-08-19T03:05:56.096Z,31.00
2022-08-19T03:06:30.670Z,31.05
2022-08-19T03:07:30.647Z,31.02
2022-08-19T03:08:30.655Z,31.02
2022-08-19T03:09:31.201Z,31.06
2022-08-19T03:10:30.600Z,31.05
2022-08-19T03:11:30.602Z,31.05
2022-08-19T03:12:30.604Z,31.05
2022-08-19T03:13:30.594Z,30.94
2022-08-19T03:14:30.633Z,31.05
2022-08-19T03:15:30.591Z,31.05
2022-08-19T03:16:33.258Z,31.12
2022-08-19T03:17:30.543Z,31.09
2022-08-19T03:18:30.539Z,31.12
2022-08-19T03:19:30.535Z,31.10
2022-08-19T03:20:33.226Z,31.18
2022-08-19T03:21:30.479Z,31.10
2022-08-19T03:22:30.474Z,31.09
2022-08-19T03:23:30.452Z,31.06
2022-08-19T03:24:30.472Z,31.09
2022-08-19T03:25:30.462Z,31.05
2022-08-19T03:26:30.461Z,31.00
2022-08-19T03:27:34.210Z,31.02
2022-08-19T03:28:30.408Z,31.02
2022-08-19T03:29:31.833Z,31.05
2022-08-19T03:30:30.393Z,31.05
2022-08-19T03:31:45.664Z,31.09
2022-08-19T03:32:32.877Z,31.03
2022-08-19T03:33:30.342Z,31.03
2022-08-19T03:34:30.349Z,31.02
2022-08-19T03:35:30.351Z,31.05
2022-08-19T03:36:31.277Z,31.00
2022-08-19T03:37:30.277Z,30.91
2022-08-19T03:38:30.271Z,30.96
2022-08-19T03:39:30.327Z,30.91
2022-08-19T03:40:30.271Z,30.88
2022-08-19T03:41:34.241Z,30.88
2022-08-19T03:42:38.082Z,30.90
2022-08-19T03:43:30.242Z,30.94
2022-08-19T03:44:30.294Z,30.96
2022-08-19T03:45:30.318Z,30.88
2022-08-19T03:46:30.318Z,30.96
2022-08-19T03:47:30.249Z,30.88
2022-08-19T03:48:30.146Z,30.91
2022-08-19T03:49:30.144Z,30.88
2022-08-19T03:50:30.153Z,30.91
2022-08-19T03:51:30.768Z,30.85
2022-08-19T03:52:30.136Z,30.91
2022-08-19T03:53:30.759Z,30.97
2022-08-19T03:54:30.074Z,30.96
2022-08-19T03:55:30.082Z,31.03
2022-08-19T03:56:30.063Z,31.02
2022-08-19T03:57:31.855Z,31.02
2022-08-19T03:58:30.070Z,31.09
2022-08-19T03:59:30.018Z,31.10
2022-08-19T04:00:30.016Z,31.14
2022-08-19T04:01:35.505Z,31.14
2022-08-19T04:02:30.014Z,31.14
2022-08-19T04:03:29.995Z,31.17
2022-08-19T04:04:30.005Z,31.18
2022-08-19T04:05:29.948Z,31.17
2022-08-19T04:06:29.950Z,31.24
2022-08-19T04:07:29.922Z,31.27
2022-08-19T04:08:29.940Z,31.31
2022-08-19T04:09:30.750Z,31.31
2022-08-19T04:10:29.889Z,31.34
2022-08-19T04:11:42.775Z,31.29
2022-08-19T04:12:29.879Z,31.40
2022-08-19T04:13:29.886Z,31.44
2022-08-19T04:14:29.891Z,31.44
2022-08-19T04:15:30.738Z,31.52
2022-08-19T04:16:31.666Z,31.52
2022-08-19T04:17:29.919Z,31.52
2022-08-19T04:18:33.543Z,31.59
2022-08-19T04:19:29.798Z,31.56
2022-08-19T04:20:29.778Z,31.61
2022-08-19T04:21:29.763Z,31.62
2022-08-19T04:22:29.754Z,31.61
2022-08-19T04:23:29.760Z,31.70
2022-08-19T04:24:29.754Z,31.69
2022-08-19T04:25:29.763Z,31.70
2022-08-19T04:26:29.741Z,31.65
2022-08-19T04:27:29.692Z,31.78
2022-08-19T04:28:29.692Z,31.77
2022-08-19T04:29:29.676Z,31.77
2022-08-19T04:30:29.698Z,31.85
2022-08-19T04:31:29.702Z,31.94
2022-08-19T04:32:29.697Z,31.87
2022-08-19T04:33:29.631Z,31.90
2022-08-19T04:34:29.631Z,31.93
2022-08-19T04:35:29.628Z,32.00
2022-08-19T04:36:29.605Z,31.96
2022-08-19T04:37:35.332Z,31.99
2022-08-19T04:38:29.561Z,32.07
2022-08-19T04:39:29.594Z,32.00
2022-08-19T04:40:29.567Z,32.09
2022-08-19T04:41:29.552Z,32.14
2022-08-19T04:42:31.106Z,32.09
2022-08-19T04:43:30.260Z,32.16
2022-08-19T04:44:29.495Z,32.21
2022-08-19T04:45:29.499Z,32.18
2022-08-19T04:46:39.546Z,32.29
2022-08-19T04:47:48.230Z,32.34
2022-08-19T04:48:29.451Z,32.30
2022-08-19T04:49:29.438Z,32.29
2022-08-19T04:50:29.433Z,32.36
2022-08-19T04:51:29.439Z,32.49
2022-08-19T04:52:29.415Z,32.45
2022-08-19T04:53:29.454Z,32.43
2022-08-19T04:54:37.527Z,32.51
2022-08-19T04:55:29.376Z,32.48
2022-08-19T04:56:29.378Z,32.55
2022-08-19T04:57:29.381Z,32.59
2022-08-19T04:58:29.382Z,32.65
2022-08-19T04:59:29.386Z,32.65
2022-08-19T05:00:30.293Z,32.73
2022-08-19T05:01:29.374Z,32.78
2022-08-19T05:02:29.322Z,32.83
2022-08-19T05:03:30.627Z,32.82
2022-08-19T05:04:29.309Z,32.87
2022-08-19T05:05:29.320Z,32.86
2022-08-19T05:06:29.756Z,32.97
2022-08-19T05:07:29.256Z,32.95
2022-08-19T05:08:31.416Z,33.01
2022-08-19T05:09:55.538Z,33.05
2022-08-19T05:10:29.223Z,33.09
2022-08-19T05:11:29.231Z,33.12
2022-08-19T05:12:29.562Z,33.04
2022-08-19T05:13:29.181Z,33.08
2022-08-19T05:14:29.186Z,33.19
2022-08-19T05:15:29.168Z,33.14
2022-08-19T05:16:29.193Z,33.14
2022-08-19T05:17:32.393Z,33.15
2022-08-19T05:18:29.133Z,33.23
2022-08-19T05:19:29.116Z,33.22
2022-08-19T05:20:29.133Z,33.23
2022-08-19T05:21:29.102Z,33.23
2022-08-19T05:22:29.116Z,33.30
2022-08-19T05:23:29.098Z,33.34
2022-08-19T05:24:29.068Z,33.28
2022-08-19T05:25:29.060Z,33.37
2022-08-19T05:26:29.066Z,33.32
2022-08-19T05:27:29.061Z,33.32
2022-08-19T05:28:29.065Z,33.45
2022-08-19T05:29:36.194Z,33.42
2022-08-19T05:30:42.381Z,33.42
2022-08-19T05:31:28.998Z,33.46
2022-08-19T05:32:29.001Z,33.43
2022-08-19T05:33:28.984Z,33.43
2022-08-19T05:34:29.005Z,33.57
2022-08-19T05:35:29.014Z,33.47
2022-08-19T05:36:28.944Z,33.65
2022-08-19T05:37:28.939Z,33.57
2022-08-19T05:38:28.941Z,33.73
2022-08-19T05:39:28.951Z,33.69
2022-08-19T05:40:28.933Z,33.68
2022-08-19T05:41:28.961Z,33.74
2022-08-19T05:42:28.886Z,33.77
2022-08-19T05:43:28.870Z,33.83
2022-08-19T05:44:28.881Z,33.81
2022-08-19T05:45:28.884Z,33.84
2022-08-19T05:46:28.853Z,33.92
2022-08-19T05:47:28.873Z,33.96
2022-08-19T05:48:28.823Z,34.08
2022-08-19T05:49:28.815Z,34.08
2022-08-19T05:50:28.813Z,34.10
2022-08-19T05:51:29.403Z,34.18
2022-08-19T05:52:28.825Z,34.20
2022-08-19T05:53:28.833Z,34.32
2022-08-19T05:54:28.771Z,34.23
2022-08-19T05:55:28.758Z,34.43
2022-08-19T05:56:28.758Z,34.47
2022-08-19T05:57:28.765Z,34.47
2022-08-19T05:58:28.746Z,34.40
2022-08-19T05:59:28.753Z,34.50
2022-08-19T06:00:28.759Z,34.48
2022-08-19T06:01:28.703Z,34.60
2022-08-19T06:02:28.745Z,34.50
2022-08-19T06:03:28.676Z,34.66
2022-08-19T06:04:28.697Z,34.67
2022-08-19T06:05:28.665Z,34.58
2022-08-19T06:06:28.707Z,34.61
2022-08-19T06:07:28.679Z,34.66
2022-08-19T06:08:34.438Z,34.66
2022-08-19T06:09:28.644Z,34.71
2022-08-19T06:10:28.684Z,34.64
2022-08-19T06:11:28.623Z,34.78
2022-08-19T06:12:29.368Z,34.75
2022-08-19T06:13:28.579Z,34.74
2022-08-19T06:14:28.572Z,34.73
2022-08-19T06:15:28.579Z,34.75
2022-08-19T06:16:28.583Z,34.75
2022-08-19T06:17:28.582Z,34.74
2022-08-19T06:18:29.317Z,34.78
2022-08-19T06:19:28.524Z,34.73
2022-08-19T06:20:54.109Z,34.80
2022-08-19T06:21:28.520Z,34.78
2022-08-19T06:22:28.507Z,34.88
2022-08-19T06:23:28.533Z,34.78
2022-08-19T06:24:28.502Z,34.86
2022-08-19T06:25:30.515Z,34.90
2022-08-19T06:26:28.490Z,34.96
2022-08-19T06:27:28.453Z,35.00
2022-08-19T06:28:28.444Z,35.07
2022-08-19T06:29:28.468Z,35.11
2022-08-19T06:30:28.451Z,35.12
2022-08-19T06:31:29.321Z,35.14
2022-08-19T06:32:28.395Z,35.15
2022-08-19T06:33:28.399Z,35.14
2022-08-19T06:34:28.411Z,35.23
2022-08-19T06:35:28.405Z,35.22
2022-08-19T06:36:28.397Z,35.19
2022-08-19T06:37:28.386Z,35.12
2022-08-19T06:38:28.338Z,35.14
2022-08-19T06:39:28.342Z,35.24
2022-08-19T06:40:28.346Z,35.30
2022-08-19T06:41:28.315Z,35.31
2022-08-19T06:42:28.320Z,35.42
2022-08-19T06:43:28.330Z,35.49
2022-08-19T06:44:28.302Z,35.53
2022-08-19T06:45:35.524Z,35.58
2022-08-19T06:46:28.274Z,35.53
2022-08-19T06:47:28.922Z,35.56
2022-08-19T06:48:28.261Z,35.52
2022-08-19T06:49:28.293Z,35.56
2022-08-19T06:50:28.825Z,35.60
2022-08-19T06:51:30.263Z,35.67
2022-08-19T06:52:28.220Z,35.74
2022-08-19T06:53:28.228Z,35.79
2022-08-19T06:54:30.716Z,35.79
2022-08-19T06:55:28.220Z,35.90
2022-08-19T06:56:28.858Z,36.01
2022-08-19T06:57:28.170Z,36.16
2022-08-19T06:58:28.165Z,36.16
2022-08-19T06:59:28.170Z,36.23
2022-08-19T07:00:28.355Z,36.42
2022-08-19T07:01:28.147Z,36.46
2022-08-19T07:02:28.184Z,36.64
2022-08-19T07:03:28.188Z,36.67
2022-08-19T07:04:28.184Z,36.68
2022-08-19T07:05:28.127Z,36.88
2022-08-19T07:06:44.713Z,36.96
2022-08-19T07:07:28.107Z,37.08
2022-08-19T07:08:29.303Z,37.21
2022-08-19T07:09:28.112Z,37.33
2022-08-19T07:10:28.856Z,37.44
2022-08-19T07:11:28.058Z,37.49
2022-08-19T07:12:28.068Z,37.56
2022-08-19T07:13:28.056Z,37.68
2022-08-19T07:14:28.067Z,37.74
2022-08-19T07:15:28.052Z,37.83
2022-08-19T07:16:29.473Z,37.93
2022-08-19T07:17:28.868Z,38.01
2022-08-19T07:18:27.998Z,38.08
2022-08-19T07:19:27.996Z,38.15
2022-08-19T07:20:28.781Z,38.23
2022-08-19T07:21:29.637Z,38.23
2022-08-19T07:22:27.999Z,38.26
2022-08-19T07:23:28.003Z,38.26
2022-08-19T07:24:27.977Z,38.48
2022-08-19T07:25:32.174Z,38.36
2022-08-19T07:26:28.282Z,38.33
2022-08-19T07:27:27.942Z,38.39
2022-08-19T07:28:27.962Z,38.45
2022-08-19T07:29:28.663Z,38.58
2022-08-19T07:30:27.957Z,38.55
2022-08-19T07:31:27.913Z,38.65
2022-08-19T07:32:28.094Z,38.60
2022-08-19T07:33:28.051Z,38.61
2022-08-19T07:34:27.894Z,38.61
2022-08-19T07:35:27.902Z,38.60
2022-08-19T07:36:27.892Z,38.55
2022-08-19T07:37:32.462Z,38.58
2022-08-19T07:38:35.111Z,38.58
2022-08-19T07:40:20.831Z,38.33
2022-08-19T07:41:20.755Z,38.36
2022-08-19T07:42:21.305Z,38.38
2022-08-19T07:43:20.778Z,38.30
2022-08-19T07:44:20.694Z,38.30
2022-08-19T07:45:20.770Z,38.20
2022-08-19T07:46:20.695Z,38.24
2022-08-19T07:47:47.816Z,38.24
2022-08-19T07:48:20.717Z,38.20
2022-08-19T07:49:20.719Z,38.17
2022-08-19T07:50:20.793Z,38.17
2022-08-19T07:51:36.141Z,38.17
2022-08-19T07:52:20.659Z,38.17
2022-08-19T07:53:20.653Z,38.06
2022-08-19T07:54:20.646Z,37.92
2022-08-19T07:55:40.610Z,38.02
2022-08-19T07:56:21.296Z,37.94
2022-08-19T07:57:20.689Z,37.96
2022-08-19T07:58:20.584Z,37.92
2022-08-19T07:59:20.598Z,37.96
2022-08-19T08:00:23.238Z,37.96
2022-08-19T08:01:20.631Z,37.97
2022-08-19T08:02:20.559Z,37.96
2022-08-19T08:03:20.568Z,37.96
2022-08-19T08:04:28.213Z,37.93
2022-08-19T08:06:13.577Z,37.97
2022-08-19T08:07:13.445Z,37.97
2022-08-19T08:09:06.310Z,37.99
2022-08-19T08:10:07.220Z,38.06
2022-08-19T08:12:02.085Z,38.05
2022-08-19T08:13:09.845Z,38.11
2022-08-19T08:14:52.119Z,38.11
2022-08-19T08:15:52.227Z,38.19
2022-08-19T08:16:52.691Z,38.20
2022-08-19T08:17:52.138Z,38.21
2022-08-19T08:18:53.208Z,38.17
2022-08-19T08:19:52.075Z,38.31
2022-08-19T08:20:52.071Z,38.33
2022-08-19T08:21:52.115Z,38.38
2022-08-19T08:22:52.207Z,38.40
2022-08-19T08:23:54.431Z,38.49
2022-08-19T08:24:52.033Z,38.50
2022-08-19T08:25:52.013Z,38.45
2022-08-19T08:26:52.292Z,38.62
2022-08-19T08:27:53.730Z,38.65
2022-08-19T08:28:52.033Z,38.71
2022-08-19T08:29:51.996Z,38.74
2022-08-19T08:30:51.973Z,38.82
2022-08-19T08:31:59.852Z,38.82
2022-08-19T08:32:51.962Z,38.83
2022-08-19T08:33:51.966Z,38.92
2022-08-19T08:34:52.526Z,38.86
2022-08-19T08:35:51.965Z,38.83
2022-08-19T08:36:51.950Z,38.83
2022-08-19T08:37:52.135Z,38.83
2022-08-19T08:39:51.945Z,38.92
2022-08-19T08:40:51.907Z,39.00
2022-08-19T08:41:51.956Z,39.02
2022-08-19T08:42:52.047Z,39.03
2022-08-19T08:43:51.937Z,38.97
2022-08-19T08:45:53.580Z,39.03
2022-08-19T08:46:52.712Z,38.92
2022-08-19T08:47:51.869Z,38.99
2022-08-19T08:48:52.631Z,38.97
2022-08-19T08:49:51.894Z,39.03
2022-08-19T08:50:51.845Z,39.19
2022-08-19T08:51:59.729Z,39.11
2022-08-19T08:52:52.818Z,39.18
2022-08-19T08:53:51.862Z,39.22
2022-08-19T08:54:54.962Z,39.29
2022-08-19T08:55:51.844Z,39.34
2022-08-19T08:56:51.900Z,39.44
2022-08-19T08:57:51.915Z,39.52
2022-08-19T08:58:54.631Z,39.53
2022-08-19T08:59:51.769Z,39.56
2022-08-19T09:00:52.651Z,39.58
2022-08-19T09:01:51.894Z,39.74
2022-08-19T09:02:51.812Z,39.74
2022-08-19T09:03:51.749Z,39.85
2022-08-19T09:04:51.760Z,39.85
2022-08-19T09:05:51.883Z,39.97
2022-08-19T09:06:51.743Z,39.96
2022-08-19T09:07:51.777Z,39.96
2022-08-19T09:08:51.762Z,39.97
2022-08-19T09:09:51.702Z,40.04
2022-08-19T09:10:55.208Z,40.02
2022-08-19T09:11:51.702Z,40.00
2022-08-19T09:12:51.693Z,39.99
2022-08-19T09:13:51.717Z,39.94
2022-08-19T09:14:52.358Z,39.97
2022-08-19T09:15:51.668Z,39.96
2022-08-19T09:16:51.719Z,39.96
2022-08-19T09:17:51.650Z,39.94
2022-08-19T09:18:51.656Z,39.90
2022-08-19T09:19:51.661Z,39.89
2022-08-19T09:20:51.639Z,39.93
2022-08-19T09:21:51.666Z,39.89
2022-08-19T09:22:51.627Z,39.92
2022-08-19T09:23:52.188Z,39.97
2022-08-19T09:24:51.630Z,39.90
2022-08-19T09:25:51.601Z,39.85
2022-08-19T09:26:52.771Z,39.85
2022-08-19T09:27:51.612Z,39.85
2022-08-19T09:28:51.600Z,39.81
2022-08-19T09:29:51.617Z,39.75
2022-08-19T09:30:53.026Z,39.78
2022-08-19T09:31:52.159Z,39.85
2022-08-19T09:32:52.954Z,39.74
2022-08-19T09:33:52.375Z,39.74
2022-08-19T09:34:51.580Z,39.70
2022-08-19T09:35:53.593Z,39.75
2022-08-19T09:36:51.561Z,39.72
2022-08-19T09:37:54.842Z,39.67
2022-08-19T09:38:51.525Z,39.68
2022-08-19T09:39:51.547Z,39.74
2022-08-19T09:40:51.499Z,39.59
2022-08-19T09:41:51.502Z,39.71
2022-08-19T09:42:52.733Z,39.74
2022-08-19T09:43:51.510Z,39.78
2022-08-19T09:44:51.507Z,39.83
2022-08-19T09:45:51.472Z,39.86
2022-08-19T09:46:52.195Z,39.87
2022-08-19T09:47:51.458Z,39.86
2022-08-19T09:48:51.449Z,39.85
2022-08-19T09:49:51.448Z,39.83
2022-08-19T09:50:52.314Z,39.87
2022-08-19T09:51:52.180Z,39.93
2022-08-19T09:52:55.578Z,39.89
2022-08-19T09:53:52.853Z,39.90
2022-08-19T09:54:51.926Z,39.90
2022-08-19T09:55:51.401Z,39.90
2022-08-19T09:56:51.406Z,39.96
2022-08-19T09:57:51.399Z,39.94
2022-08-19T09:58:51.411Z,39.92
2022-08-19T09:59:51.391Z,39.92
2022-08-19T10:00:51.663Z,39.99
2022-08-19T10:01:52.190Z,39.96
2022-08-19T10:02:51.358Z,39.96
2022-08-19T10:03:51.350Z,39.99
2022-08-19T10:04:52.212Z,40.06
2022-08-19T10:05:55.246Z,40.11
2022-08-19T10:06:53.596Z,40.15
2022-08-19T10:07:51.349Z,40.14
2022-08-19T10:08:51.319Z,40.15
2022-08-19T10:09:51.328Z,40.15
2022-08-19T10:10:51.328Z,40.15
2022-08-19T10:11:54.726Z,40.16
2022-08-19T10:12:51.299Z,40.15
2022-08-19T10:13:51.306Z,40.12
2022-08-19T10:14:51.302Z,40.09
2022-08-19T10:15:51.290Z,40.08
2022-08-19T10:16:52.194Z,40.04
2022-08-19T10:17:54.996Z,40.06
2022-08-19T10:18:51.250Z,40.00
2022-08-19T10:19:55.743Z,40.06
2022-08-19T10:20:51.936Z,40.05
2022-08-19T10:21:51.256Z,39.99
2022-08-19T10:22:51.838Z,40.04
2022-08-19T10:23:51.217Z,40.05
2022-08-19T10:24:52.200Z,40.16
2022-08-19T10:25:51.235Z,40.21
2022-08-19T10:26:55.855Z,40.24
2022-08-19T10:27:51.630Z,40.26
2022-08-19T10:28:51.285Z,40.28
2022-08-19T10:29:51.193Z,40.27
2022-08-19T10:30:51.197Z,40.33
2022-08-19T10:31:59.824Z,40.31
2022-08-19T10:32:51.723Z,40.53
2022-08-19T10:33:53.358Z,40.46
2022-08-19T10:34:51.150Z,40.53
2022-08-19T10:35:56.851Z,40.62
2022-08-19T10:36:55.871Z,40.61
2022-08-19T10:37:57.434Z,40.51
2022-08-19T10:38:56.094Z,40.56
2022-08-19T10:39:51.207Z,40.50
2022-08-19T10:40:51.132Z,40.49
2022-08-19T10:41:51.135Z,40.51
2022-08-19T10:42:51.708Z,40.49
2022-08-19T10:43:51.100Z,40.53
2022-08-19T10:44:51.842Z,40.47
2022-08-19T10:45:52.389Z,40.56
2022-08-19T10:46:51.113Z,40.51
2022-08-19T10:47:51.735Z,40.44
2022-08-19T10:48:51.081Z,40.40
2022-08-19T10:49:51.056Z,40.35
2022-08-19T10:50:51.072Z,40.38
2022-08-19T10:51:51.070Z,40.38
2022-08-19T10:52:51.053Z,40.34
2022-08-19T10:53:51.051Z,40.30
2022-08-19T10:54:51.022Z,40.31
2022-08-19T10:55:51.740Z,40.26
2022-08-19T10:56:51.034Z,40.27
2022-08-19T10:58:02.240Z,40.28
2022-08-19T10:58:51.000Z,40.31
2022-08-19T10:59:51.011Z,40.30
2022-08-19T11:00:51.068Z,40.30
2022-08-19T11:01:51.011Z,40.28
2022-08-19T11:02:50.972Z,40.24
2022-08-19T11:03:51.750Z,40.31
2022-08-19T11:04:50.981Z,40.35
2022-08-19T11:05:50.957Z,40.46
2022-08-19T11:06:51.718Z,40.41
2022-08-19T11:07:50.946Z,40.51
2022-08-19T11:08:50.959Z,40.58
2022-08-19T11:09:50.927Z,40.58
2022-08-19T11:10:51.740Z,40.63
2022-08-19T11:11:50.961Z,40.69
2022-08-19T11:12:50.903Z,40.82
2022-08-19T11:13:50.911Z,40.85
2022-08-19T11:14:50.911Z,40.92
2022-08-19T11:15:50.912Z,40.95
2022-08-19T11:16:50.905Z,40.96
2022-08-19T11:17:50.901Z,41.00
2022-08-19T11:18:51.752Z,41.09
2022-08-19T11:19:50.883Z,41.14
2022-08-19T11:20:50.865Z,41.22
2022-08-19T11:21:50.852Z,41.29
2022-08-19T11:22:50.856Z,41.34
2022-08-19T11:23:50.865Z,41.44
2022-08-19T11:24:50.865Z,41.47
2022-08-19T11:25:50.848Z,41.53
2022-08-19T11:26:51.754Z,41.55
2022-08-19T11:27:50.882Z,41.57
2022-08-19T11:28:50.808Z,41.56
2022-08-19T11:29:50.807Z,41.65
2022-08-19T11:30:50.811Z,41.70
2022-08-19T11:31:50.820Z,41.71
2022-08-19T11:32:50.813Z,41.71
2022-08-19T11:33:50.822Z,41.68
2022-08-19T11:34:51.762Z,41.77
2022-08-19T11:35:50.783Z,41.71
2022-08-19T11:36:50.784Z,41.71
2022-08-19T11:37:50.828Z,41.66
2022-08-19T11:38:50.764Z,41.71
2022-08-19T11:39:51.847Z,41.62
2022-08-19T11:40:50.771Z,41.65
2022-08-19T11:41:50.733Z,41.59
2022-08-19T11:42:51.250Z,41.56
2022-08-19T11:43:50.785Z,41.44
2022-08-19T11:44:50.716Z,41.37
2022-08-19T11:45:50.715Z,41.37
2022-08-19T11:46:50.720Z,41.37
2022-08-19T11:47:50.729Z,41.25
2022-08-19T11:48:50.720Z,41.26
2022-08-19T11:49:50.690Z,41.19
2022-08-19T11:50:50.686Z,41.09
2022-08-19T11:51:50.695Z,41.04
2022-08-19T11:52:50.670Z,40.99
2022-08-19T11:53:50.668Z,41.04
2022-08-19T11:54:50.670Z,40.99
2022-08-19T11:55:50.673Z,41.00
2022-08-19T11:56:50.666Z,41.00
2022-08-19T11:57:50.744Z,41.02
2022-08-19T11:58:50.649Z,40.99
2022-08-19T11:59:50.624Z,41.02
2022-08-19T12:00:50.632Z,40.99
2022-08-19T12:01:50.630Z,41.03
2022-08-19T12:02:50.623Z,41.03
2022-08-19T12:03:50.708Z,41.10
2022-08-19T12:04:50.619Z,41.07
2022-08-19T12:05:50.664Z,41.06
2022-08-19T12:06:50.634Z,40.96
2022-08-19T12:07:50.612Z,40.90
2022-08-19T12:08:50.648Z,40.95
2022-08-19T12:09:50.592Z,40.90
2022-08-19T12:10:50.573Z,40.78
2022-08-19T12:11:50.568Z,40.90
2022-08-19T12:12:58.630Z,40.82
2022-08-19T12:13:50.547Z,40.81
2022-08-19T12:14:50.559Z,40.82
2022-08-19T12:15:50.526Z,40.92
2022-08-19T12:16:52.198Z,40.92
2022-08-19T12:17:50.567Z,40.96
2022-08-19T12:18:50.528Z,41.06
2022-08-19T12:19:50.519Z,41.00
2022-08-19T12:20:50.523Z,41.09
2022-08-19T12:21:50.495Z,41.10
2022-08-19T12:22:50.504Z,41.12
2022-08-19T12:23:55.106Z,41.18
2022-08-19T12:24:50.494Z,41.21
2022-08-19T12:25:50.479Z,41.19
2022-08-19T12:26:53.128Z,41.15
2022-08-19T12:27:57.292Z,41.19
2022-08-19T12:28:50.496Z,41.22
2022-08-19T12:29:50.476Z,41.26
2022-08-19T12:30:51.312Z,41.26
2022-08-19T12:31:50.459Z,41.29
2022-08-19T12:32:50.447Z,41.43
2022-08-19T12:33:50.426Z,41.38
2022-08-19T12:34:50.424Z,41.38
2022-08-19T12:35:50.435Z,41.47
2022-08-19T12:36:50.695Z,41.53
2022-08-19T12:37:57.055Z,41.56
2022-08-19T12:38:50.408Z,41.57
2022-08-19T12:39:50.449Z,41.57
2022-08-19T12:40:50.385Z,41.52
2022-08-19T12:41:51.635Z,41.56
2022-08-19T12:42:50.382Z,41.53
2022-08-19T12:43:50.398Z,41.55
2022-08-19T12:44:50.380Z,41.44
2022-08-19T12:45:50.356Z,41.44
2022-08-19T12:46:53.794Z,41.38
2022-08-19T12:47:50.434Z,41.41
2022-08-19T12:48:54.091Z,41.40
2022-08-19T12:49:54.325Z,41.43
2022-08-19T12:50:51.314Z,41.44
2022-08-19T12:51:50.342Z,41.37
2022-08-19T12:52:50.327Z,41.43
2022-08-19T12:53:50.306Z,41.34
2022-08-19T12:54:50.306Z,41.37
2022-08-19T12:55:50.291Z,41.33
2022-08-19T12:56:50.302Z,41.29
2022-08-19T12:57:50.402Z,41.33
2022-08-19T12:58:50.512Z,41.29